sensor_id;sensor_type;location;lat;lon;timestamp;pressure;altitude;pressure_sealevel;temperature;humidity
83697;BME280;73677;54.530;18.484;2024-02-21T00:02:28;101265.16;;;5.62;86.62
83697;BME280;73677;54.530;18.484;2024-02-21T00:04:57;101263.16;;;5.56;86.65
83697;BME280;73677;54.530;18.484;2024-02-21T00:07:26;101257.78;;;5.48;86.79
83697;BME280;73677;54.530;18.484;2024-02-21T00:09:55;101256.53;;;5.50;87.08
83697;BME280;73677;54.530;18.484;2024-02-21T00:12:23;101236.69;;;5.42;87.80
83697;BME280;73677;54.530;18.484;2024-02-21T00:14:52;101239.41;;;5.42;87.89
83697;BME280;73677;54.530;18.484;2024-02-21T00:17:20;101234.69;;;5.36;87.74
83697;BME280;73677;54.530;18.484;2024-02-21T00:19:50;101166.75;;;4.89;87.98
83697;BME280;73677;54.530;18.484;2024-02-21T00:22:19;101230.56;;;5.40;87.96
83697;BME280;73677;54.530;18.484;2024-02-21T00:24:48;101217.56;;;5.27;88.46
83697;BME280;73677;54.530;18.484;2024-02-21T00:27:16;101229.41;;;5.34;87.95
83697;BME280;73677;54.530;18.484;2024-02-21T00:29:44;101234.63;;;5.44;87.77
83697;BME280;73677;54.530;18.484;2024-02-21T00:32:13;101219.66;;;5.40;87.56
83697;BME280;73677;54.530;18.484;2024-02-21T00:34:42;101219.66;;;5.40;87.92
83697;BME280;73677;54.530;18.484;2024-02-21T00:37:12;101215.19;;;5.47;87.55
83697;BME280;73677;54.530;18.484;2024-02-21T00:39:40;101223.94;;;5.57;87.87
83697;BME280;73677;54.530;18.484;2024-02-21T00:42:10;101217.00;;;5.54;87.56
83697;BME280;73677;54.530;18.484;2024-02-21T00:44:38;101218.19;;;5.52;88.60
83697;BME280;73677;54.530;18.484;2024-02-21T00:47:07;101207.84;;;5.47;88.73
83697;BME280;73677;54.530;18.484;2024-02-21T00:49:35;101181.75;;;5.30;89.36
83697;BME280;73677;54.530;18.484;2024-02-21T00:52:04;101211.34;;;5.56;89.33
83697;BME280;73677;54.530;18.484;2024-02-21T00:54:34;101201.56;;;5.62;89.82
83697;BME280;73677;54.530;18.484;2024-02-21T00:57:16;101191.78;;;5.52;89.71
83697;BME280;73677;54.530;18.484;2024-02-21T00:59:45;101198.28;;;5.66;89.83
83697;BME280;73677;54.530;18.484;2024-02-21T01:02:14;101193.97;;;5.72;90.26
83697;BME280;73677;54.530;18.484;2024-02-21T01:04:42;101140.69;;;5.32;90.49
83697;BME280;73677;54.530;18.484;2024-02-21T01:07:11;101193.50;;;5.68;90.78
83697;BME280;73677;54.530;18.484;2024-02-21T01:09:41;101191.81;;;5.67;90.82
83697;BME280;73677;54.530;18.484;2024-02-21T01:12:10;101192.47;;;5.69;90.90
83697;BME280;73677;54.530;18.484;2024-02-21T01:14:38;101177.69;;;5.64;90.95
83697;BME280;73677;54.530;18.484;2024-02-21T01:17:07;101184.28;;;5.69;90.56
83697;BME280;73677;54.530;18.484;2024-02-21T01:19:35;101107.00;;;5.25;90.78
83697;BME280;73677;54.530;18.484;2024-02-21T01:22:05;101178.28;;;5.74;91.21
83697;BME280;73677;54.530;18.484;2024-02-21T01:24:36;101171.13;;;5.73;90.69
83697;BME280;73677;54.530;18.484;2024-02-21T01:30:10;101177.25;;;5.75;91.57
83697;BME280;73677;54.530;18.484;2024-02-21T01:32:39;101173.88;;;5.87;91.26
83697;BME280;73677;54.530;18.484;2024-02-21T01:35:08;101181.28;;;5.79;91.65
83697;BME280;73677;54.530;18.484;2024-02-21T01:37:37;101168.97;;;5.83;91.69
83697;BME280;73677;54.530;18.484;2024-02-21T01:40:07;101166.34;;;5.75;92.01
83697;BME280;73677;54.530;18.484;2024-02-21T01:42:38;101154.66;;;5.66;92.02
83697;BME280;73677;54.530;18.484;2024-02-21T01:45:07;101166.69;;;5.86;92.18
83697;BME280;73677;54.530;18.484;2024-02-21T01:47:37;101159.41;;;5.87;91.42
83697;BME280;73677;54.530;18.484;2024-02-21T01:50:06;101098.41;;;5.50;91.17
83697;BME280;73677;54.530;18.484;2024-02-21T01:52:35;101154.28;;;5.84;91.98
83697;BME280;73677;54.530;18.484;2024-02-21T01:55:04;101161.03;;;5.96;90.98
83697;BME280;73677;54.530;18.484;2024-02-21T01:57:34;101138.81;;;5.99;90.88
83697;BME280;73677;54.530;18.484;2024-02-21T02:00:03;101135.41;;;5.97;91.21
83697;BME280;73677;54.530;18.484;2024-02-21T02:02:33;101137.78;;;6.00;90.67
83697;BME280;73677;54.530;18.484;2024-02-21T02:05:04;101132.59;;;6.05;91.08
83697;BME280;73677;54.530;18.484;2024-02-21T02:07:33;101138.69;;;6.07;90.67
83697;BME280;73677;54.530;18.484;2024-02-21T02:10:03;101135.50;;;6.04;90.37
83697;BME280;73677;54.530;18.484;2024-02-21T02:12:31;101136.63;;;6.09;90.42
83697;BME280;73677;54.530;18.484;2024-02-21T02:15:00;101136.25;;;6.12;90.07
83697;BME280;73677;54.530;18.484;2024-02-21T02:17:32;101129.94;;;6.12;90.55
83697;BME280;73677;54.530;18.484;2024-02-21T02:20:00;101119.50;;;6.01;90.87
83697;BME280;73677;54.530;18.484;2024-02-21T02:22:32;101109.78;;;5.83;90.98
83697;BME280;73677;54.530;18.484;2024-02-21T02:25:04;101117.06;;;6.06;91.13
83697;BME280;73677;54.530;18.484;2024-02-21T02:27:41;101116.66;;;6.09;91.12
83697;BME280;73677;54.530;18.484;2024-02-21T02:30:11;101114.59;;;6.11;91.19
83697;BME280;73677;54.530;18.484;2024-02-21T02:32:44;101098.31;;;6.03;90.97
83697;BME280;73677;54.530;18.484;2024-02-21T02:35:13;101108.44;;;6.23;90.45
83697;BME280;73677;54.530;18.484;2024-02-21T02:37:47;101102.72;;;6.18;90.62
83697;BME280;73677;54.530;18.484;2024-02-21T02:40:17;101098.38;;;6.24;90.58
83697;BME280;73677;54.530;18.484;2024-02-21T02:42:46;101098.59;;;6.22;91.08
83697;BME280;73677;54.530;18.484;2024-02-21T02:45:16;101094.63;;;6.25;91.18
83697;BME280;73677;54.530;18.484;2024-02-21T02:47:45;101087.47;;;6.24;91.38
83697;BME280;73677;54.530;18.484;2024-02-21T02:50:14;101087.41;;;6.17;91.47
83697;BME280;73677;54.530;18.484;2024-02-21T02:52:43;101078.09;;;6.12;91.89
83697;BME280;73677;54.530;18.484;2024-02-21T02:55:12;101084.00;;;6.15;91.03
83697;BME280;73677;54.530;18.484;2024-02-21T02:57:42;101080.44;;;6.15;91.44
83697;BME280;73677;54.530;18.484;2024-02-21T03:00:11;101066.06;;;6.06;91.85
83697;BME280;73677;54.530;18.484;2024-02-21T03:02:41;101070.19;;;6.17;91.74
83697;BME280;73677;54.530;18.484;2024-02-21T03:05:15;101070.44;;;6.22;91.34
83697;BME280;73677;54.530;18.484;2024-02-21T03:07:44;101072.25;;;6.15;92.20
83697;BME280;73677;54.530;18.484;2024-02-21T03:10:14;101068.47;;;6.16;91.82
83697;BME280;73677;54.530;18.484;2024-02-21T03:12:47;101066.19;;;6.19;91.96
83697;BME280;73677;54.530;18.484;2024-02-21T03:15:16;101068.94;;;6.19;92.37
83697;BME280;73677;54.530;18.484;2024-02-21T03:17:45;101038.63;;;6.14;91.73
83697;BME280;73677;54.530;18.484;2024-02-21T03:20:13;101044.50;;;6.11;91.81
83697;BME280;73677;54.530;18.484;2024-02-21T03:22:42;101063.16;;;6.29;91.98
83697;BME280;73677;54.530;18.484;2024-02-21T03:25:10;101033.09;;;6.08;91.85
83697;BME280;73677;54.530;18.484;2024-02-21T03:27:39;101059.31;;;6.23;92.31
83697;BME280;73677;54.530;18.484;2024-02-21T03:30:10;101052.19;;;6.22;91.98
83697;BME280;73677;54.530;18.484;2024-02-21T03:32:39;101034.22;;;6.13;92.37
83697;BME280;73677;54.530;18.484;2024-02-21T03:35:08;101045.41;;;6.18;92.17
83697;BME280;73677;54.530;18.484;2024-02-21T03:37:37;101048.59;;;6.22;92.70
83697;BME280;73677;54.530;18.484;2024-02-21T03:40:08;101049.47;;;6.08;93.02
83697;BME280;73677;54.530;18.484;2024-02-21T03:42:37;101050.22;;;6.16;93.20
83697;BME280;73677;54.530;18.484;2024-02-21T03:45:06;101014.78;;;6.02;92.56
83697;BME280;73677;54.530;18.484;2024-02-21T03:47:36;101027.28;;;6.11;92.66
83697;BME280;73677;54.530;18.484;2024-02-21T03:50:06;101033.38;;;6.13;92.92
83697;BME280;73677;54.530;18.484;2024-02-21T03:52:35;101039.09;;;6.18;92.96
83697;BME280;73677;54.530;18.484;2024-02-21T03:55:06;101016.94;;;6.06;92.84
83697;BME280;73677;54.530;18.484;2024-02-21T03:57:35;101029.25;;;6.17;92.70
83697;BME280;73677;54.530;18.484;2024-02-21T04:00:04;101025.06;;;6.21;93.03
83697;BME280;73677;54.530;18.484;2024-02-21T04:02:39;101023.19;;;6.21;92.93
83697;BME280;73677;54.530;18.484;2024-02-21T04:05:08;101016.50;;;6.24;92.93
83697;BME280;73677;54.530;18.484;2024-02-21T04:07:39;101010.44;;;6.28;92.63
83697;BME280;73677;54.530;18.484;2024-02-21T04:10:08;101018.19;;;6.25;92.94
83697;BME280;73677;54.530;18.484;2024-02-21T04:12:37;101004.00;;;6.15;92.47
83697;BME280;73677;54.530;18.484;2024-02-21T04:15:06;101011.03;;;6.24;92.75
83697;BME280;73677;54.530;18.484;2024-02-21T04:17:34;101014.16;;;6.21;92.98
83697;BME280;73677;54.530;18.484;2024-02-21T04:20:05;101001.94;;;6.17;93.10
83697;BME280;73677;54.530;18.484;2024-02-21T04:22:36;101002.00;;;6.23;92.83
83697;BME280;73677;54.530;18.484;2024-02-21T04:25:05;100995.56;;;6.31;92.62
83697;BME280;73677;54.530;18.484;2024-02-21T04:27:33;101001.03;;;6.31;92.97
83697;BME280;73677;54.530;18.484;2024-02-21T04:30:02;100998.88;;;6.26;93.01
83697;BME280;73677;54.530;18.484;2024-02-21T04:32:31;100981.00;;;6.24;92.57
83697;BME280;73677;54.530;18.484;2024-02-21T04:34:59;100984.72;;;6.37;92.43
83697;BME280;73677;54.530;18.484;2024-02-21T04:37:29;100982.19;;;6.36;92.90
83697;BME280;73677;54.530;18.484;2024-02-21T04:39:58;100980.13;;;6.38;92.68
83697;BME280;73677;54.530;18.484;2024-02-21T04:42:26;100973.03;;;6.44;92.18
83697;BME280;73677;54.530;18.484;2024-02-21T04:44:55;100974.44;;;6.39;92.40
83697;BME280;73677;54.530;18.484;2024-02-21T04:47:24;100969.56;;;6.35;92.95
83697;BME280;73677;54.530;18.484;2024-02-21T04:49:52;100959.69;;;6.34;92.72
83697;BME280;73677;54.530;18.484;2024-02-21T04:52:21;100956.31;;;6.32;93.15
83697;BME280;73677;54.530;18.484;2024-02-21T04:54:51;100951.03;;;6.30;93.16
83697;BME280;73677;54.530;18.484;2024-02-21T04:57:19;100947.41;;;6.23;93.33
83697;BME280;73677;54.530;18.484;2024-02-21T04:59:47;100944.03;;;6.21;93.57
83697;BME280;73677;54.530;18.484;2024-02-21T05:02:16;100936.47;;;6.23;92.58
83697;BME280;73677;54.530;18.484;2024-02-21T05:04:46;100944.66;;;6.23;93.39
83697;BME280;73677;54.530;18.484;2024-02-21T05:07:15;100933.75;;;6.23;93.37
83697;BME280;73677;54.530;18.484;2024-02-21T05:09:43;100927.19;;;6.18;93.30
83697;BME280;73677;54.530;18.484;2024-02-21T05:12:13;100926.66;;;6.29;92.70
83697;BME280;73677;54.530;18.484;2024-02-21T05:14:42;100920.75;;;6.25;93.35
83697;BME280;73677;54.530;18.484;2024-02-21T05:17:17;100909.00;;;6.25;92.86
83697;BME280;73677;54.530;18.484;2024-02-21T05:19:46;100789.53;;;5.57;92.51
83697;BME280;73677;54.530;18.484;2024-02-21T05:22:21;100882.03;;;6.15;92.72
83697;BME280;73677;54.530;18.484;2024-02-21T05:24:50;100907.78;;;6.27;92.60
83697;BME280;73677;54.530;18.484;2024-02-21T05:27:26;100899.84;;;6.32;92.25
83697;BME280;73677;54.530;18.484;2024-02-21T05:29:54;100894.97;;;6.28;92.33
83697;BME280;73677;54.530;18.484;2024-02-21T05:32:23;100863.47;;;6.04;92.68
83697;BME280;73677;54.530;18.484;2024-02-21T05:34:51;100877.69;;;6.21;92.24
83697;BME280;73677;54.530;18.484;2024-02-21T05:37:20;100888.19;;;6.24;92.44
83697;BME280;73677;54.530;18.484;2024-02-21T05:39:49;100875.78;;;6.21;92.86
83697;BME280;73677;54.530;18.484;2024-02-21T05:42:19;100782.28;;;5.64;91.88
83697;BME280;73677;54.530;18.484;2024-02-21T05:44:48;100760.38;;;5.36;92.05
83697;BME280;73677;54.530;18.484;2024-02-21T05:47:17;100883.38;;;6.26;92.37
83697;BME280;73677;54.530;18.484;2024-02-21T05:49:47;100874.41;;;6.32;91.71
83697;BME280;73677;54.530;18.484;2024-02-21T05:52:16;100860.75;;;6.32;91.63
83697;BME280;73677;54.530;18.484;2024-02-21T05:54:45;100868.28;;;6.30;91.97
83697;BME280;73677;54.530;18.484;2024-02-21T05:57:17;100799.94;;;5.89;91.77
83697;BME280;73677;54.530;18.484;2024-02-21T05:59:45;100860.25;;;6.22;91.55
83697;BME280;73677;54.530;18.484;2024-02-21T06:02:15;100859.00;;;6.24;92.01
83697;BME280;73677;54.530;18.484;2024-02-21T06:04:44;100854.47;;;6.31;91.31
83697;BME280;73677;54.530;18.484;2024-02-21T06:07:14;100818.81;;;6.12;91.19
83697;BME280;73677;54.530;18.484;2024-02-21T06:09:42;100846.47;;;6.30;91.41
83697;BME280;73677;54.530;18.484;2024-02-21T06:12:11;100840.63;;;6.33;91.33
83697;BME280;73677;54.530;18.484;2024-02-21T06:14:39;100823.59;;;6.31;91.72
83697;BME280;73677;54.530;18.484;2024-02-21T06:17:08;100821.50;;;6.33;91.27
83697;BME280;73677;54.530;18.484;2024-02-21T06:19:39;100820.69;;;6.39;90.71
83697;BME280;73677;54.530;18.484;2024-02-21T06:22:08;100823.22;;;6.41;90.52
83697;BME280;73677;54.530;18.484;2024-02-21T06:24:37;100825.59;;;6.50;89.72
83697;BME280;73677;54.530;18.484;2024-02-21T06:27:06;100809.13;;;6.37;90.23
83697;BME280;73677;54.530;18.484;2024-02-21T06:29:37;100828.31;;;6.50;89.95
83697;BME280;73677;54.530;18.484;2024-02-21T06:32:06;100833.16;;;6.48;89.77
83697;BME280;73677;54.530;18.484;2024-02-21T06:34:34;100838.44;;;6.56;89.60
83697;BME280;73677;54.530;18.484;2024-02-21T06:37:05;100842.03;;;6.57;90.22
83697;BME280;73677;54.530;18.484;2024-02-21T06:39:33;100842.81;;;6.51;90.10
83697;BME280;73677;54.530;18.484;2024-02-21T06:42:03;100839.72;;;6.60;89.89
83697;BME280;73677;54.530;18.484;2024-02-21T06:44:32;100835.72;;;6.56;89.78
83697;BME280;73677;54.530;18.484;2024-02-21T06:47:04;100838.50;;;6.63;89.34
83697;BME280;73677;54.530;18.484;2024-02-21T06:49:32;100852.84;;;6.71;89.43
83697;BME280;73677;54.530;18.484;2024-02-21T06:52:01;100850.34;;;6.76;89.05
83697;BME280;73677;54.530;18.484;2024-02-21T06:54:31;100847.78;;;6.68;88.68
83697;BME280;73677;54.530;18.484;2024-02-21T06:57:00;100842.16;;;6.76;89.05
83697;BME280;73677;54.530;18.484;2024-02-21T06:59:28;100836.72;;;6.83;88.09
83697;BME280;73677;54.530;18.484;2024-02-21T07:01:57;100840.53;;;6.89;88.38
83697;BME280;73677;54.530;18.484;2024-02-21T07:04:25;100806.63;;;6.76;88.31
83697;BME280;73677;54.530;18.484;2024-02-21T07:06:54;100840.59;;;6.95;87.92
83697;BME280;73677;54.530;18.484;2024-02-21T07:09:23;100836.53;;;6.91;88.07
83697;BME280;73677;54.530;18.484;2024-02-21T07:11:52;100812.75;;;6.78;87.43
83697;BME280;73677;54.530;18.484;2024-02-21T07:14:21;100835.53;;;6.99;87.35
83697;BME280;73677;54.530;18.484;2024-02-21T07:16:50;100818.94;;;7.00;87.97
83697;BME280;73677;54.530;18.484;2024-02-21T07:19:18;100823.13;;;6.96;87.39
83697;BME280;73677;54.530;18.484;2024-02-21T07:21:47;100814.16;;;7.09;87.33
83697;BME280;73677;54.530;18.484;2024-02-21T07:24:15;100824.00;;;7.03;87.70
83697;BME280;73677;54.530;18.484;2024-02-21T07:26:44;100761.41;;;6.67;87.60
83697;BME280;73677;54.530;18.484;2024-02-21T07:29:14;100827.59;;;7.04;87.89
83697;BME280;73677;54.530;18.484;2024-02-21T07:31:43;100813.09;;;7.10;87.88
83697;BME280;73677;54.530;18.484;2024-02-21T07:34:11;100809.34;;;7.11;87.67
83697;BME280;73677;54.530;18.484;2024-02-21T07:36:42;100805.31;;;7.13;87.67
83697;BME280;73677;54.530;18.484;2024-02-21T07:39:11;100803.63;;;7.12;87.77
83697;BME280;73677;54.530;18.484;2024-02-21T07:41:40;100796.47;;;7.05;88.49
83697;BME280;73677;54.530;18.484;2024-02-21T07:44:10;100777.97;;;7.00;88.42
83697;BME280;73677;54.530;18.484;2024-02-21T07:46:40;100782.59;;;7.00;88.30
83697;BME280;73677;54.530;18.484;2024-02-21T07:49:09;100789.09;;;6.99;88.72
83697;BME280;73677;54.530;18.484;2024-02-21T07:51:38;100773.34;;;7.01;89.38
83697;BME280;73677;54.530;18.484;2024-02-21T07:54:06;100774.78;;;6.97;89.57
83697;BME280;73677;54.530;18.484;2024-02-21T07:56:39;100763.00;;;6.96;90.21
83697;BME280;73677;54.530;18.484;2024-02-21T07:59:07;100761.94;;;6.91;90.13
83697;BME280;73677;54.530;18.484;2024-02-21T08:01:36;100755.59;;;6.84;90.99
83697;BME280;73677;54.530;18.484;2024-02-21T08:04:06;100750.56;;;6.87;90.98
83697;BME280;73677;54.530;18.484;2024-02-21T08:06:35;100749.06;;;6.78;90.54
83697;BME280;73677;54.530;18.484;2024-02-21T08:09:03;100753.34;;;6.94;90.42
83697;BME280;73677;54.530;18.484;2024-02-21T08:11:32;100719.88;;;6.92;90.25
83697;BME280;73677;54.530;18.484;2024-02-21T08:14:00;100739.69;;;7.00;89.92
83697;BME280;73677;54.530;18.484;2024-02-21T08:16:30;100741.38;;;7.08;90.13
83697;BME280;73677;54.530;18.484;2024-02-21T08:18:59;100742.66;;;7.12;89.36
83697;BME280;73677;54.530;18.484;2024-02-21T08:21:31;100730.91;;;7.18;89.58
83697;BME280;73677;54.530;18.484;2024-02-21T08:23:59;100719.97;;;7.11;89.41
83697;BME280;73677;54.530;18.484;2024-02-21T08:26:29;100723.13;;;7.15;89.37
83697;BME280;73677;54.530;18.484;2024-02-21T08:29:04;100716.84;;;7.21;89.25
83697;BME280;73677;54.530;18.484;2024-02-21T08:31:33;100723.16;;;7.21;89.27
83697;BME280;73677;54.530;18.484;2024-02-21T08:34:01;100664.41;;;6.98;88.83
83697;BME280;73677;54.530;18.484;2024-02-21T08:36:35;100706.13;;;7.39;88.07
83697;BME280;73677;54.530;18.484;2024-02-21T08:39:03;100684.84;;;7.15;88.29
83697;BME280;73677;54.530;18.484;2024-02-21T08:41:33;100717.88;;;7.33;88.34
83697;BME280;73677;54.530;18.484;2024-02-21T08:44:22;100701.91;;;7.43;88.25
83697;BME280;73677;54.530;18.484;2024-02-21T08:46:51;100703.59;;;7.51;87.42
83697;BME280;73677;54.530;18.484;2024-02-21T08:49:19;100697.28;;;7.44;87.41
83697;BME280;73677;54.530;18.484;2024-02-21T08:51:49;100707.00;;;7.53;87.20
83697;BME280;73677;54.530;18.484;2024-02-21T08:54:18;100695.19;;;7.59;87.40
83697;BME280;73677;54.530;18.484;2024-02-21T08:56:46;100702.34;;;7.66;87.33
83697;BME280;73677;54.530;18.484;2024-02-21T08:59:15;100705.72;;;7.62;86.95
83697;BME280;73677;54.530;18.484;2024-02-21T09:01:44;100693.94;;;7.42;87.02
83697;BME280;73677;54.530;18.484;2024-02-21T09:04:12;100700.25;;;7.42;87.35
83697;BME280;73677;54.530;18.484;2024-02-21T09:06:40;100703.19;;;7.41;87.81
83697;BME280;73677;54.530;18.484;2024-02-21T09:09:11;100704.88;;;7.48;87.81
83697;BME280;73677;54.530;18.484;2024-02-21T09:11:39;100697.50;;;7.55;87.29
83697;BME280;73677;54.530;18.484;2024-02-21T09:14:08;100693.50;;;7.64;86.92
83697;BME280;73677;54.530;18.484;2024-02-21T09:16:38;100700.66;;;7.59;86.97
83697;BME280;73677;54.530;18.484;2024-02-21T09:19:06;100691.84;;;7.63;87.24
83697;BME280;73677;54.530;18.484;2024-02-21T09:21:38;100674.56;;;7.70;86.84
83697;BME280;73677;54.530;18.484;2024-02-21T09:24:06;100684.66;;;7.76;86.83
83697;BME280;73677;54.530;18.484;2024-02-21T09:26:36;100691.19;;;7.75;87.23
83697;BME280;73677;54.530;18.484;2024-02-21T09:29:04;100682.97;;;7.75;88.23
83697;BME280;73677;54.530;18.484;2024-02-21T09:31:33;100682.56;;;7.78;88.19
83697;BME280;73677;54.530;18.484;2024-02-21T09:34:02;100667.63;;;7.74;88.36
83697;BME280;73677;54.530;18.484;2024-02-21T09:36:30;100668.28;;;7.69;88.25
83697;BME280;73677;54.530;18.484;2024-02-21T09:38:59;100667.41;;;7.82;88.59
83697;BME280;73677;54.530;18.484;2024-02-21T09:41:27;100665.69;;;8.00;88.40
83697;BME280;73677;54.530;18.484;2024-02-21T09:43:57;100667.78;;;7.92;88.10
83697;BME280;73677;54.530;18.484;2024-02-21T09:46:37;100664.25;;;7.85;88.95
83697;BME280;73677;54.530;18.484;2024-02-21T09:49:18;100647.63;;;7.73;88.40
83697;BME280;73677;54.530;18.484;2024-02-21T09:51:51;100661.72;;;7.83;88.52
83697;BME280;73677;54.530;18.484;2024-02-21T09:54:21;100651.56;;;7.97;88.52
83697;BME280;73677;54.530;18.484;2024-02-21T09:56:50;100652.59;;;8.09;87.59
83697;BME280;73677;54.530;18.484;2024-02-21T09:59:20;100646.88;;;8.17;87.64
83697;BME280;73677;54.530;18.484;2024-02-21T10:01:49;100636.97;;;8.36;85.61
83697;BME280;73677;54.530;18.484;2024-02-21T10:04:19;100636.09;;;8.42;85.94
83697;BME280;73677;54.530;18.484;2024-02-21T10:06:49;100613.06;;;8.56;85.57
83697;BME280;73677;54.530;18.484;2024-02-21T10:09:21;100627.97;;;8.67;84.82
83697;BME280;73677;54.530;18.484;2024-02-21T10:11:51;100634.00;;;8.82;85.39
83697;BME280;73677;54.530;18.484;2024-02-21T10:14:20;100612.59;;;8.59;85.23
83697;BME280;73677;54.530;18.484;2024-02-21T10:16:56;100630.72;;;8.67;85.52
83697;BME280;73677;54.530;18.484;2024-02-21T10:19:25;100614.09;;;8.62;85.26
83697;BME280;73677;54.530;18.484;2024-02-21T10:22:05;100623.88;;;8.82;85.05
83697;BME280;73677;54.530;18.484;2024-02-21T10:24:35;100612.41;;;8.61;84.91
83697;BME280;73677;54.530;18.484;2024-02-21T10:27:06;100603.63;;;8.45;85.68
83697;BME280;73677;54.530;18.484;2024-02-21T10:29:38;100609.31;;;8.44;85.36
83697;BME280;73677;54.530;18.484;2024-02-21T10:32:08;100607.56;;;8.63;85.44
83697;BME280;73677;54.530;18.484;2024-02-21T10:34:37;100619.94;;;8.72;84.55
83697;BME280;73677;54.530;18.484;2024-02-21T10:37:08;100614.25;;;8.67;84.88
83697;BME280;73677;54.530;18.484;2024-02-21T10:39:38;100606.47;;;8.64;85.05
83697;BME280;73677;54.530;18.484;2024-02-21T10:42:06;100582.00;;;8.69;84.42
83697;BME280;73677;54.530;18.484;2024-02-21T10:44:38;100612.78;;;8.64;84.86
83697;BME280;73677;54.530;18.484;2024-02-21T10:47:09;100596.97;;;8.66;84.60
83697;BME280;73677;54.530;18.484;2024-02-21T10:49:40;100595.06;;;8.73;84.71
83697;BME280;73677;54.530;18.484;2024-02-21T10:52:15;100603.31;;;8.67;85.07
83697;BME280;73677;54.530;18.484;2024-02-21T10:54:48;100615.66;;;8.82;84.99
83697;BME280;73677;54.530;18.484;2024-02-21T10:57:22;100603.28;;;8.73;84.68
83697;BME280;73677;54.530;18.484;2024-02-21T10:59:53;100607.47;;;8.76;84.32
83697;BME280;73677;54.530;18.484;2024-02-21T11:02:23;100604.31;;;8.72;84.50
83697;BME280;73677;54.530;18.484;2024-02-21T11:04:52;100600.09;;;8.76;85.08
83697;BME280;73677;54.530;18.484;2024-02-21T11:07:22;100566.97;;;8.46;84.39
83697;BME280;73677;54.530;18.484;2024-02-21T11:09:51;100601.53;;;8.47;85.06
83697;BME280;73677;54.530;18.484;2024-02-21T11:12:25;100587.09;;;8.59;84.96
83697;BME280;73677;54.530;18.484;2024-02-21T11:15:05;100589.81;;;8.65;84.91
83697;BME280;73677;54.530;18.484;2024-02-21T11:17:34;100590.47;;;8.61;84.56
83697;BME280;73677;54.530;18.484;2024-02-21T11:20:16;100586.75;;;8.48;85.68
83697;BME280;73677;54.530;18.484;2024-02-21T11:22:45;100585.88;;;8.55;85.56
83697;BME280;73677;54.530;18.484;2024-02-21T11:25:21;100575.50;;;8.63;84.78
83697;BME280;73677;54.530;18.484;2024-02-21T11:27:49;100581.75;;;8.77;84.84
83697;BME280;73677;54.530;18.484;2024-02-21T11:30:26;100561.50;;;8.78;84.04
83697;BME280;73677;54.530;18.484;2024-02-21T11:33:00;100568.69;;;9.04;83.72
83697;BME280;73677;54.530;18.484;2024-02-21T11:35:31;100541.66;;;9.07;82.82
83697;BME280;73677;54.530;18.484;2024-02-21T11:38:08;100550.78;;;9.26;82.48
83697;BME280;73677;54.530;18.484;2024-02-21T11:40:38;100538.84;;;9.39;81.38
83697;BME280;73677;54.530;18.484;2024-02-21T11:43:08;100543.47;;;9.63;81.03
83697;BME280;73677;54.530;18.484;2024-02-21T11:45:37;100529.56;;;9.76;79.96
83697;BME280;73677;54.530;18.484;2024-02-21T11:48:07;100515.47;;;9.91;79.48
83697;BME280;73677;54.530;18.484;2024-02-21T11:50:35;100511.13;;;10.19;78.43
83697;BME280;73677;54.530;18.484;2024-02-21T11:53:06;100504.53;;;11.15;75.54
83697;BME280;73677;54.530;18.484;2024-02-21T11:55:36;100508.94;;;11.04;73.87
83697;BME280;73677;54.530;18.484;2024-02-21T11:58:05;100502.09;;;10.84;74.81
83697;BME280;73677;54.530;18.484;2024-02-21T12:00:33;100501.53;;;10.82;74.83
83697;BME280;73677;54.530;18.484;2024-02-21T12:03:04;100483.50;;;11.56;73.53
83697;BME280;73677;54.530;18.484;2024-02-21T12:05:35;100474.00;;;12.15;71.16
83697;BME280;73677;54.530;18.484;2024-02-21T12:08:10;100489.81;;;12.19;69.42
83697;BME280;73677;54.530;18.484;2024-02-21T12:10:38;100490.63;;;12.20;68.85
83697;BME280;73677;54.530;18.484;2024-02-21T12:13:07;100463.34;;;11.67;69.51
83697;BME280;73677;54.530;18.484;2024-02-21T12:15:38;100468.78;;;12.02;68.94
83697;BME280;73677;54.530;18.484;2024-02-21T12:18:10;100461.53;;;12.24;67.75
83697;BME280;73677;54.530;18.484;2024-02-21T12:20:38;100448.94;;;12.61;66.06
83697;BME280;73677;54.530;18.484;2024-02-21T12:23:09;100434.69;;;12.64;65.39
83697;BME280;73677;54.530;18.484;2024-02-21T12:25:38;100448.28;;;13.04;63.35
83697;BME280;73677;54.530;18.484;2024-02-21T12:28:07;100429.88;;;13.43;61.55
83697;BME280;73677;54.530;18.484;2024-02-21T12:30:36;100431.34;;;13.51;61.82
83697;BME280;73677;54.530;18.484;2024-02-21T12:33:08;100423.13;;;13.34;61.82
83697;BME280;73677;54.530;18.484;2024-02-21T12:35:36;100412.78;;;13.68;60.60
83697;BME280;73677;54.530;18.484;2024-02-21T12:38:05;100438.50;;;13.69;60.18
83697;BME280;73677;54.530;18.484;2024-02-21T12:40:34;100416.09;;;13.10;61.13
83697;BME280;73677;54.530;18.484;2024-02-21T12:43:03;100401.38;;;13.60;59.83
83697;BME280;73677;54.530;18.484;2024-02-21T12:45:31;100422.47;;;12.44;62.43
83697;BME280;73677;54.530;18.484;2024-02-21T12:48:02;100407.78;;;12.10;63.57
83697;BME280;73677;54.530;18.484;2024-02-21T12:50:33;100407.91;;;12.31;62.69
83697;BME280;73677;54.530;18.484;2024-02-21T12:53:02;100413.19;;;12.05;62.87
83697;BME280;73677;54.530;18.484;2024-02-21T12:55:42;100415.44;;;11.68;65.24
83697;BME280;73677;54.530;18.484;2024-02-21T12:58:11;100397.19;;;11.50;64.90
83697;BME280;73677;54.530;18.484;2024-02-21T13:00:41;100423.16;;;11.54;65.44
83697;BME280;73677;54.530;18.484;2024-02-21T13:03:11;100426.91;;;11.25;66.86
83697;BME280;73677;54.530;18.484;2024-02-21T13:05:42;100405.78;;;11.54;66.35